Time;durP1;ratioP1;P1;durP2;ratioP2;P2;SDS_P1;SDS_P2;PMS_P1;PMS_P2;Temp;Humidity;BMP_temperature;BMP_pressure;BME280_temperature;BME280_humidity;BME280_pressure;Samples;Min_cycle;Max_cycle;Signal;HPM_P1;HPM_P2
2023/12/17 00:01:24;;;;;;;;;;;17.00;62.20;;;;;;10357676;28;89030;-52
2023/12/17 00:06:26;;;;;;;;;;;16.90;61.90;;;;;;10356686;28;88601;-52
2023/12/17 00:11:27;;;;;;;;;;;16.90;61.70;;;;;;10364629;28;89793;-52
2023/12/17 00:16:29;;;;;;;;;;;16.90;61.70;;;;;;10347073;28;89013;-51
2023/12/17 00:21:32;;;;;;;;;;;16.90;62.10;;;;;;10348814;28;90724;-50
2023/12/17 00:26:33;;;;;;;;;;;16.80;62.30;;;;;;10359455;28;89873;-57
2023/12/17 00:31:35;;;;;;;;;;;16.80;62.40;;;;;;10353715;28;89079;-51
2023/12/17 00:36:37;;;;;;;;;;;16.80;62.20;;;;;;10352088;28;88996;-51
2023/12/17 00:41:38;;;;;;;;;;;16.80;61.90;;;;;;10364175;28;90994;-50
2023/12/17 00:46:40;;;;;;;;;;;16.80;61.80;;;;;;10358201;28;89723;-48
2023/12/17 00:51:42;;;;;;;;;;;16.80;61.50;;;;;;10350331;28;89940;-47
2023/12/17 00:56:44;;;;;;;;;;;16.70;61.30;;;;;;10369536;28;89290;-51
2023/12/17 01:01:46;;;;;;;;;;;16.70;61.10;;;;;;10362295;28;89504;-49
2023/12/17 01:06:47;;;;;;;;;;;16.70;60.90;;;;;;10344948;28;89825;-48
2023/12/17 01:11:49;;;;;;;;;;;16.70;61.10;;;;;;10345069;28;89962;-48
2023/12/17 01:16:51;;;;;;;;;;;16.70;61.50;;;;;;10351001;28;89676;-47
2023/12/17 01:21:53;;;;;;;;;;;16.70;61.70;;;;;;10356230;28;90170;-48
2023/12/17 01:26:55;;;;;;;;;;;16.70;61.70;;;;;;10362424;28;89018;-47
2023/12/17 01:31:57;;;;;;;;;;;16.60;61.40;;;;;;10364123;28;89797;-49
2023/12/17 01:36:59;;;;;;;;;;;16.70;61.80;;;;;;10364151;28;91116;-48
2023/12/17 01:42:00;;;;;;;;;;;16.70;61.00;;;;;;10358293;28;89039;-47
2023/12/17 01:47:02;;;;;;;;;;;16.60;60.80;;;;;;10350484;28;88301;-51
2023/12/17 01:52:04;;;;;;;;;;;16.60;60.60;;;;;;10354740;28;88940;-47
2023/12/17 01:57:06;;;;;;;;;;;16.60;60.40;;;;;;10366416;28;88996;-52
2023/12/17 02:07:23;;;;;;;;;;;16.60;60.70;;;;;;10285131;28;90677;-43
2023/12/17 02:12:25;;;;;;;;;;;16.60;61.20;;;;;;10332839;28;89245;-45
2023/12/17 02:17:28;;;;;;;;;;;16.60;61.30;;;;;;10373099;28;89015;-45
2023/12/17 02:22:29;;;;;;;;;;;16.60;61.10;;;;;;10371404;28;88824;-42
2023/12/17 02:27:31;;;;;;;;;;;16.50;60.80;;;;;;10354448;28;89956;-43
2023/12/17 02:32:33;;;;;;;;;;;16.50;60.60;;;;;;10359690;28;89051;-41
2023/12/17 02:37:34;;;;;;;;;;;16.50;60.70;;;;;;10348382;28;89394;-46
2023/12/17 02:42:36;;;;;;;;;;;16.50;60.40;;;;;;10362440;28;89979;-43
2023/12/17 02:47:38;;;;;;;;;;;16.50;60.40;;;;;;10363913;28;88535;-42
2023/12/17 02:52:40;;;;;;;;;;;16.60;60.20;;;;;;10360025;28;90594;-43
2023/12/17 02:57:42;;;;;;;;;;;16.50;60.00;;;;;;10356898;28;89553;-45
2023/12/17 03:02:44;;;;;;;;;;;16.50;60.50;;;;;;10371217;28;90017;-42
2023/12/17 03:07:46;;;;;;;;;;;16.50;60.80;;;;;;10368129;28;90034;-44
2023/12/17 03:12:47;;;;;;;;;;;16.50;61.00;;;;;;10356773;28;89993;-44
2023/12/17 03:17:49;;;;;;;;;;;16.50;60.80;;;;;;10373760;28;89635;-42
2023/12/17 03:22:51;;;;;;;;;;;16.50;60.40;;;;;;10355934;28;89177;-41
2023/12/17 03:27:53;;;;;;;;;;;16.50;60.40;;;;;;10372771;28;88957;-45
2023/12/17 03:32:54;;;;;;;;;;;16.50;60.00;;;;;;10357424;28;89269;-43
2023/12/17 03:37:56;;;;;;;;;;;16.50;59.70;;;;;;10368895;28;89458;-42
2023/12/17 03:42:58;;;;;;;;;;;16.50;59.40;;;;;;10366511;28;90788;-43
2023/12/17 03:48:00;;;;;;;;;;;16.50;59.30;;;;;;10364431;28;90031;-45
2023/12/17 03:53:02;;;;;;;;;;;16.50;59.50;;;;;;10347388;28;89975;-43
2023/12/17 03:58:04;;;;;;;;;;;16.50;59.90;;;;;;10371336;28;89036;-42
2023/12/17 04:03:05;;;;;;;;;;;16.50;60.20;;;;;;10353100;28;89219;-42
2023/12/17 04:08:07;;;;;;;;;;;16.50;60.30;;;;;;10353082;28;89028;-43
2023/12/17 04:13:09;;;;;;;;;;;16.40;60.60;;;;;;10369726;28;90072;-44
2023/12/17 04:18:10;;;;;;;;;;;16.50;60.90;;;;;;10366537;28;88787;-42
2023/12/17 04:23:14;;;;;;;;;;;16.40;61.00;;;;;;10368059;28;89963;-46
2023/12/17 04:28:15;;;;;;;;;;;16.40;61.10;;;;;;10362069;28;90153;-42
2023/12/17 04:33:17;;;;;;;;;;;16.40;61.20;;;;;;10351199;28;90097;-42
2023/12/17 04:38:19;;;;;;;;;;;16.40;61.30;;;;;;10370444;28;90455;-43
2023/12/17 04:43:21;;;;;;;;;;;16.30;61.40;;;;;;10368449;28;89686;-43
2023/12/17 04:48:23;;;;;;;;;;;16.30;61.60;;;;;;10371456;28;90042;-43
2023/12/17 04:53:25;;;;;;;;;;;16.30;61.80;;;;;;10370461;28;90093;-43
2023/12/17 04:58:26;;;;;;;;;;;16.30;61.90;;;;;;10370266;28;90028;-44
2023/12/17 05:03:28;;;;;;;;;;;16.30;61.90;;;;;;10368416;28;89198;-46
2023/12/17 05:08:30;;;;;;;;;;;16.30;62.10;;;;;;10373468;28;90542;-46
2023/12/17 05:13:32;;;;;;;;;;;16.30;62.20;;;;;;10356413;28;89162;-42
2023/12/17 05:18:34;;;;;;;;;;;16.30;62.30;;;;;;10376839;28;90037;-44
2023/12/17 05:23:35;;;;;;;;;;;16.30;62.40;;;;;;10359038;28;90743;-43
2023/12/17 05:28:39;;;;;;;;;;;16.20;62.40;;;;;;10377199;28;88970;-43
2023/12/17 05:33:41;;;;;;;;;;;16.20;62.50;;;;;;10377177;28;89051;-46
2023/12/17 05:38:45;;;;;;;;;;;16.20;62.60;;;;;;10376153;28;88906;-43
2023/12/17 05:43:47;;;;;;;;;;;16.20;62.60;;;;;;10368413;28;88766;-59
2023/12/17 05:48:49;;;;;;;;;;;16.30;62.70;;;;;;10375092;28;89602;-42
2023/12/17 05:53:51;;;;;;;;;;;16.50;62.60;;;;;;10375105;28;89105;-42
2023/12/17 05:58:53;;;;;;;;;;;16.70;62.10;;;;;;10377179;28;88703;-44
2023/12/17 06:03:54;;;;;;;;;;;16.90;61.70;;;;;;10356268;28;88855;-45
2023/12/17 06:08:56;;;;;;;;;;;17.00;61.40;;;;;;10356403;28;93414;-42
2023/12/17 06:13:58;;;;;;;;;;;17.00;61.30;;;;;;10370272;28;89725;-43
2023/12/17 06:18:59;;;;;;;;;;;17.00;61.30;;;;;;10364570;28;89760;-43
2023/12/17 06:24:03;;;;;;;;;;;17.00;61.50;;;;;;10363800;28;89999;-42
2023/12/17 06:29:05;;;;;;;;;;;17.00;61.50;;;;;;10370630;28;89678;-42
2023/12/17 06:34:07;;;;;;;;;;;17.00;61.70;;;;;;10352247;28;91668;-41
2023/12/17 06:39:10;;;;;;;;;;;16.90;61.90;;;;;;10370080;28;89764;-44
2023/12/17 06:44:12;;;;;;;;;;;16.90;62.00;;;;;;10374207;28;90665;-43
2023/12/17 06:49:14;;;;;;;;;;;16.90;62.20;;;;;;10372843;28;89505;-46
2023/12/17 06:54:16;;;;;;;;;;;16.80;62.40;;;;;;10373132;28;89086;-44
2023/12/17 06:59:18;;;;;;;;;;;16.80;63.60;;;;;;10372583;28;90060;-43
2023/12/17 07:04:20;;;;;;;;;;;16.80;62.80;;;;;;10354302;28;90294;-43
2023/12/17 07:09:22;;;;;;;;;;;16.80;62.90;;;;;;10371473;28;89551;-43
2023/12/17 07:14:24;;;;;;;;;;;16.80;63.00;;;;;;10369619;28;88893;-43
2023/12/17 07:19:26;;;;;;;;;;;16.70;63.10;;;;;;10369833;28;90286;-42
2023/12/17 07:24:28;;;;;;;;;;;16.80;63.20;;;;;;10372730;28;90459;-44
2023/12/17 07:29:30;;;;;;;;;;;16.70;63.30;;;;;;10372751;28;92390;-45
2023/12/17 07:34:32;;;;;;;;;;;16.70;63.40;;;;;;10371705;28;89976;-42
2023/12/17 07:39:34;;;;;;;;;;;16.70;63.70;;;;;;10344131;28;89038;-44
2023/12/17 07:44:35;;;;;;;;;;;16.70;63.90;;;;;;10367588;28;91660;-44
2023/12/17 07:49:37;;;;;;;;;;;16.80;64.00;;;;;;10369892;28;89407;-41
2023/12/17 07:54:39;;;;;;;;;;;16.90;63.90;;;;;;10364029;28;90032;-47
2023/12/17 07:59:41;;;;;;;;;;;16.90;63.90;;;;;;10368765;28;90051;-42
2023/12/17 08:04:45;;;;;;;;;;;16.90;63.90;;;;;;10369028;28;110032;-45
2023/12/17 08:09:48;;;;;;;;;;;16.90;63.90;;;;;;10333783;28;89121;-46
2023/12/17 08:14:49;;;;;;;;;;;16.90;67.80;;;;;;10360207;28;89681;-43
2023/12/17 08:19:51;;;;;;;;;;;16.90;67.60;;;;;;10354213;28;92504;-44
2023/12/17 08:24:53;;;;;;;;;;;16.90;67.10;;;;;;10366887;28;90518;-43
2023/12/17 08:29:54;;;;;;;;;;;16.90;67.40;;;;;;10365553;28;88603;-43
2023/12/17 08:34:56;;;;;;;;;;;16.90;67.40;;;;;;10358435;28;89003;-46
2023/12/17 08:39:58;;;;;;;;;;;16.90;67.40;;;;;;10370169;28;89395;-46
2023/12/17 08:45:00;;;;;;;;;;;16.90;67.40;;;;;;10352568;28;90413;-43
2023/12/17 08:50:02;;;;;;;;;;;16.80;67.40;;;;;;10376820;28;90107;-44
2023/12/17 08:55:04;;;;;;;;;;;16.80;67.30;;;;;;10377286;28;90234;-44
2023/12/17 09:00:06;;;;;;;;;;;16.70;67.00;;;;;;10375564;28;90153;-44
2023/12/17 09:05:08;;;;;;;;;;;16.70;67.10;;;;;;10373599;28;89463;-44
2023/12/17 09:10:10;;;;;;;;;;;16.70;66.80;;;;;;10376282;28;90101;-43
2023/12/17 09:15:11;;;;;;;;;;;16.80;66.50;;;;;;10376128;28;89984;-43
2023/12/17 09:20:14;;;;;;;;;;;16.80;66.30;;;;;;10377226;28;89455;-43
2023/12/17 09:25:16;;;;;;;;;;;16.80;66.20;;;;;;10373773;28;89225;-42
2023/12/17 09:30:18;;;;;;;;;;;16.80;66.10;;;;;;10366983;28;89142;-42
2023/12/17 09:35:20;;;;;;;;;;;16.70;66.00;;;;;;10375727;28;90861;-44
2023/12/17 09:40:22;;;;;;;;;;;16.70;66.10;;;;;;10371119;28;90011;-44
2023/12/17 09:45:24;;;;;;;;;;;16.70;66.30;;;;;;10371751;28;89213;-41
2023/12/17 09:50:27;;;;;;;;;;;16.70;66.40;;;;;;10375621;28;90050;-43
2023/12/17 09:55:29;;;;;;;;;;;16.70;66.40;;;;;;10353677;28;88893;-44
2023/12/17 10:00:31;;;;;;;;;;;16.60;66.20;;;;;;10375667;28;90189;-49
2023/12/17 10:05:33;;;;;;;;;;;16.60;66.30;;;;;;10374869;28;90054;-43
2023/12/17 10:10:35;;;;;;;;;;;16.60;66.70;;;;;;10356165;28;88477;-43
2023/12/17 10:15:37;;;;;;;;;;;16.50;66.30;;;;;;10353587;28;89221;-44
2023/12/17 10:20:39;;;;;;;;;;;16.60;66.00;;;;;;10374279;28;90035;-43
2023/12/17 10:25:41;;;;;;;;;;;16.60;65.80;;;;;;10374642;28;90126;-43
2023/12/17 10:30:43;;;;;;;;;;;16.70;65.60;;;;;;10356338;28;91467;-43
2023/12/17 10:35:48;;;;;;;;;;;16.70;65.50;;;;;;10374423;28;90126;-43
2023/12/17 10:40:50;;;;;;;;;;;16.70;65.40;;;;;;10373203;28;90148;-44
2023/12/17 10:45:53;;;;;;;;;;;16.80;65.50;;;;;;10372595;28;89074;-45
2023/12/17 10:50:56;;;;;;;;;;;16.90;65.40;;;;;;10368353;28;89719;-44
2023/12/17 10:55:58;;;;;;;;;;;17.10;65.10;;;;;;10371748;28;90338;-44
2023/12/17 11:00:59;;;;;;;;;;;17.30;64.80;;;;;;10373010;28;89859;-44
2023/12/17 11:06:04;;;;;;;;;;;17.40;64.40;;;;;;10371188;28;90390;-43
2023/12/17 11:11:06;;;;;;;;;;;17.60;64.30;;;;;;10370392;28;89204;-45
2023/12/17 11:16:17;;;;;;;;;;;17.60;64.20;;;;;;10371507;28;90686;-42
2023/12/17 11:21:19;;;;;;;;;;;17.80;64.00;;;;;;10372778;28;88852;-43
2023/12/17 11:26:21;;;;;;;;;;;17.90;63.80;;;;;;10368149;28;88584;-43
2023/12/17 11:31:23;;;;;;;;;;;18.00;63.80;;;;;;10364458;28;90314;-45
2023/12/17 11:36:25;;;;;;;;;;;18.00;64.30;;;;;;10368935;28;89939;-42
2023/12/17 11:41:27;;;;;;;;;;;18.10;64.40;;;;;;10368777;28;89552;-41
2023/12/17 11:46:28;;;;;;;;;;;18.10;64.40;;;;;;10350145;28;89110;-42
2023/12/17 11:51:31;;;;;;;;;;;18.20;64.70;;;;;;10368498;28;88927;-42
2023/12/17 11:56:32;;;;;;;;;;;18.30;64.50;;;;;;10367182;28;88876;-42
2023/12/17 12:01:34;;;;;;;;;;;18.40;64.40;;;;;;10365765;28;91592;-41
2023/12/17 12:06:36;;;;;;;;;;;18.60;63.50;;;;;;10335176;28;90507;-45
2023/12/17 12:11:38;;;;;;;;;;;18.60;63.40;;;;;;10362468;28;90390;-43
2023/12/17 12:16:41;;;;;;;;;;;18.60;63.10;;;;;;10359872;28;88753;-42
2023/12/17 12:21:43;;;;;;;;;;;18.60;63.10;;;;;;10346698;28;88941;-44
2023/12/17 12:26:44;;;;;;;;;;;18.60;63.10;;;;;;10343890;28;90134;-44
2023/12/17 12:31:50;;;;;;;;;;;18.70;63.00;;;;;;10360450;28;89115;-42
2023/12/17 12:36:52;;;;;;;;;;;18.80;62.70;;;;;;10365094;28;92541;-43
2023/12/17 12:41:54;;;;;;;;;;;18.80;62.50;;;;;;10363029;28;88308;-45
2023/12/17 12:46:56;;;;;;;;;;;18.80;62.50;;;;;;10356476;28;90210;-45
2023/12/17 12:51:57;;;;;;;;;;;18.70;62.40;;;;;;10359681;28;89299;-44
2023/12/17 12:56:59;;;;;;;;;;;18.70;62.40;;;;;;10343543;28;90814;-42
2023/12/17 13:02:01;;;;;;;;;;;18.80;62.50;;;;;;10345566;28;89545;-43
2023/12/17 13:07:03;;;;;;;;;;;18.70;62.30;;;;;;10362620;28;89145;-45
2023/12/17 13:12:05;;;;;;;;;;;18.70;62.70;;;;;;10345337;28;90377;-44
2023/12/17 13:17:07;;;;;;;;;;;18.70;62.90;;;;;;10346142;28;89679;-42
2023/12/17 13:22:09;;;;;;;;;;;18.70;62.80;;;;;;10341849;28;89355;-41
2023/12/17 13:27:11;;;;;;;;;;;18.80;62.50;;;;;;10348701;28;90443;-48
2023/12/17 13:32:13;;;;;;;;;;;18.90;62.20;;;;;;10370442;28;89413;-43
2023/12/17 13:37:16;;;;;;;;;;;18.90;62.00;;;;;;10359533;28;89521;-43
2023/12/17 13:42:18;;;;;;;;;;;18.90;62.00;;;;;;10350510;28;90135;-43
2023/12/17 13:47:19;;;;;;;;;;;18.90;62.20;;;;;;10366633;28;90114;-48
2023/12/17 13:52:22;;;;;;;;;;;18.90;62.20;;;;;;10365847;28;90024;-43
2023/12/17 13:57:23;;;;;;;;;;;18.90;62.20;;;;;;10362303;28;89572;-52
2023/12/17 14:02:27;;;;;;;;;;;18.80;62.30;;;;;;10367318;28;90044;-47
2023/12/17 14:07:29;;;;;;;;;;;18.70;62.60;;;;;;10351729;28;89440;-46
2023/12/17 14:12:32;;;;;;;;;;;18.70;62.60;;;;;;10356471;28;90017;-46
2023/12/17 14:17:33;;;;;;;;;;;18.80;62.50;;;;;;10363990;28;89621;-46
2023/12/17 14:22:36;;;;;;;;;;;18.90;62.20;;;;;;10374998;28;88463;-52
2023/12/17 14:27:38;;;;;;;;;;;18.90;62.00;;;;;;10374914;28;91441;-47
2023/12/17 14:32:40;;;;;;;;;;;18.90;62.00;;;;;;10355820;28;89024;-53
2023/12/17 14:37:41;;;;;;;;;;;18.80;62.00;;;;;;10372596;28;91173;-42
2023/12/17 14:42:43;;;;;;;;;;;18.80;62.00;;;;;;10373075;28;89742;-43
2023/12/17 14:47:47;;;;;;;;;;;18.80;61.90;;;;;;10371818;28;90200;-45
2023/12/17 14:52:49;;;;;;;;;;;18.70;61.90;;;;;;10371391;28;88725;-42
2023/12/17 14:57:51;;;;;;;;;;;18.70;62.10;;;;;;10364313;28;89212;-45
2023/12/17 15:02:53;;;;;;;;;;;18.60;63.30;;;;;;10364480;28;88562;-46
2023/12/17 15:07:54;;;;;;;;;;;18.60;64.10;;;;;;10369139;28;88898;-50
2023/12/17 15:12:56;;;;;;;;;;;18.60;64.20;;;;;;10371627;28;89221;-44
2023/12/17 15:18:00;;;;;;;;;;;18.60;64.50;;;;;;10368077;28;89340;-46
2023/12/17 15:23:03;;;;;;;;;;;18.50;64.80;;;;;;10370453;28;88973;-44
2023/12/17 15:28:05;;;;;;;;;;;18.50;65.00;;;;;;10367196;28;90597;-47
2023/12/17 15:33:06;;;;;;;;;;;18.50;65.20;;;;;;10349894;28;89589;-44
2023/12/17 15:38:08;;;;;;;;;;;18.50;65.10;;;;;;10367007;28;90242;-45
2023/12/17 15:43:10;;;;;;;;;;;18.50;65.20;;;;;;10368665;28;89046;-44
2023/12/17 15:48:12;;;;;;;;;;;18.40;65.20;;;;;;10368980;28;90023;-45
2023/12/17 15:53:13;;;;;;;;;;;18.50;65.30;;;;;;10368031;28;90064;-43
2023/12/17 15:58:17;;;;;;;;;;;18.50;65.20;;;;;;10368522;28;90147;-48
2023/12/17 16:03:19;;;;;;;;;;;18.50;65.40;;;;;;10369411;28;88350;-44
2023/12/17 16:08:21;;;;;;;;;;;18.40;65.30;;;;;;10339151;28;90062;-44
2023/12/17 16:13:22;;;;;;;;;;;18.40;65.90;;;;;;10367317;28;89952;-43
2023/12/17 16:18:27;;;;;;;;;;;18.50;67.80;;;;;;10363818;28;90420;-44
2023/12/17 16:23:28;;;;;;;;;;;18.40;67.90;;;;;;10362949;28;89909;-46
2023/12/17 16:28:30;;;;;;;;;;;18.40;67.50;;;;;;10360978;28;89153;-44
2023/12/17 16:33:32;;;;;;;;;;;18.40;67.60;;;;;;10369149;28;88926;-44
2023/12/17 16:38:34;;;;;;;;;;;18.50;67.70;;;;;;10365230;28;90432;-47
2023/12/17 16:43:35;;;;;;;;;;;18.60;67.30;;;;;;10360692;28;89658;-48
2023/12/17 16:48:37;;;;;;;;;;;18.70;67.10;;;;;;10365424;28;88994;-46
2023/12/17 16:53:39;;;;;;;;;;;18.80;66.50;;;;;;10364267;28;89351;-45
2023/12/17 16:58:41;;;;;;;;;;;18.90;67.70;;;;;;10343732;28;90186;-44
2023/12/17 17:03:42;;;;;;;;;;;18.90;66.70;;;;;;10366248;28;90049;-45
2023/12/17 17:08:44;;;;;;;;;;;19.00;67.00;;;;;;10347824;28;89942;-49
2023/12/17 17:13:47;;;;;;;;;;;19.00;70.20;;;;;;10353483;28;89209;-47
2023/12/17 17:18:49;;;;;;;;;;;19.20;68.10;;;;;;10368452;28;90033;-46
2023/12/17 17:23:52;;;;;;;;;;;19.20;69.00;;;;;;10372989;28;90234;-44
2023/12/17 17:28:54;;;;;;;;;;;19.40;71.40;;;;;;10374848;28;89264;-43
2023/12/17 17:33:56;;;;;;;;;;;19.50;69.40;;;;;;10358612;28;90446;-62
2023/12/17 17:38:58;;;;;;;;;;;19.50;69.50;;;;;;10356928;28;89947;-47
2023/12/17 17:44:00;;;;;;;;;;;19.50;68.90;;;;;;10376219;28;89283;-43
2023/12/17 17:49:02;;;;;;;;;;;19.40;68.80;;;;;;10374413;28;89495;-47
2023/12/17 17:54:04;;;;;;;;;;;19.20;68.70;;;;;;10375544;28;89908;-46
2023/12/17 17:59:05;;;;;;;;;;;19.10;69.10;;;;;;10373115;28;89982;-44
2023/12/17 18:04:08;;;;;;;;;;;18.90;69.30;;;;;;10370957;28;89500;-44
2023/12/17 18:09:10;;;;;;;;;;;18.80;69.40;;;;;;10373644;28;89746;-45
2023/12/17 18:14:12;;;;;;;;;;;18.80;69.60;;;;;;10361425;28;89485;-45
2023/12/17 18:19:14;;;;;;;;;;;18.70;69.70;;;;;;10363178;28;90394;-45
2023/12/17 18:24:16;;;;;;;;;;;18.60;69.80;;;;;;10372359;28;89786;-43
2023/12/17 18:29:18;;;;;;;;;;;18.60;69.80;;;;;;10371330;28;88950;-45
2023/12/17 18:34:19;;;;;;;;;;;18.60;69.80;;;;;;10373580;28;88479;-45
2023/12/17 18:39:23;;;;;;;;;;;18.60;69.80;;;;;;10369466;28;90117;-44
2023/12/17 18:44:25;;;;;;;;;;;18.60;69.70;;;;;;10365861;28;89056;-46
2023/12/17 18:49:27;;;;;;;;;;;18.60;69.60;;;;;;10365134;28;90096;-46
2023/12/17 18:54:29;;;;;;;;;;;18.60;69.50;;;;;;10369719;28;88938;-43
2023/12/17 18:59:30;;;;;;;;;;;18.60;69.40;;;;;;10372487;28;89651;-44
2023/12/17 19:04:32;;;;;;;;;;;18.50;69.30;;;;;;10345423;28;88976;-46
2023/12/17 19:09:34;;;;;;;;;;;18.60;69.10;;;;;;10372400;28;92760;-46
2023/12/17 19:14:40;;;;;;;;;;;18.60;69.00;;;;;;10369613;28;89217;-48
2023/12/17 19:19:42;;;;;;;;;;;18.50;68.90;;;;;;10358805;28;90123;-45
2023/12/17 19:24:44;;;;;;;;;;;18.50;69.00;;;;;;10349113;28;89311;-45
2023/12/17 19:29:48;;;;;;;;;;;18.50;70.00;;;;;;10366616;28;90395;-49
2023/12/17 19:34:49;;;;;;;;;;;18.50;68.80;;;;;;10352099;28;89448;-46
2023/12/17 19:39:53;;;;;;;;;;;18.50;68.60;;;;;;10367691;28;89994;-47
2023/12/17 19:44:55;;;;;;;;;;;18.50;68.40;;;;;;10347865;28;89133;-43
2023/12/17 19:49:56;;;;;;;;;;;18.40;69.30;;;;;;10369959;28;89898;-47
2023/12/17 19:54:58;;;;;;;;;;;18.50;68.30;;;;;;10351788;28;89928;-47
2023/12/17 20:00:00;;;;;;;;;;;18.50;68.10;;;;;;10350665;28;90113;-44
2023/12/17 20:05:02;;;;;;;;;;;18.50;68.00;;;;;;10367811;28;90026;-45
2023/12/17 20:10:05;;;;;;;;;;;18.50;67.80;;;;;;10363562;28;93972;-46
2023/12/17 20:15:08;;;;;;;;;;;18.50;67.80;;;;;;10364590;28;93659;-47
2023/12/17 20:20:10;;;;;;;;;;;18.50;67.60;;;;;;10358093;28;94415;-46
2023/12/17 20:25:12;;;;;;;;;;;18.50;67.50;;;;;;10358430;28;93423;-43
2023/12/17 20:30:15;;;;;;;;;;;18.50;67.40;;;;;;10361456;28;96346;-47
2023/12/17 20:35:17;;;;;;;;;;;18.50;67.40;;;;;;10361102;28;94331;-48
2023/12/17 20:40:19;;;;;;;;;;;18.50;67.40;;;;;;10368036;28;94565;-46
2023/12/17 20:45:21;;;;;;;;;;;18.50;67.30;;;;;;10350789;28;93331;-46
2023/12/17 20:50:22;;;;;;;;;;;18.50;67.20;;;;;;10369902;28;93576;-46
2023/12/17 20:55:24;;;;;;;;;;;18.50;67.20;;;;;;10366944;28;93454;-48
2023/12/17 21:00:26;;;;;;;;;;;18.40;67.20;;;;;;10371124;28;94381;-45
2023/12/17 21:05:31;;;;;;;;;;;18.40;67.20;;;;;;10366312;28;93847;-44
2023/12/17 21:10:33;;;;;;;;;;;18.40;67.20;;;;;;10362247;28;95016;-44
2023/12/17 21:15:34;;;;;;;;;;;18.30;67.30;;;;;;10365439;28;93545;-44
2023/12/17 21:20:36;;;;;;;;;;;18.30;67.40;;;;;;10363255;28;95912;-48
2023/12/17 21:25:38;;;;;;;;;;;18.20;67.50;;;;;;10369041;28;94552;-44
2023/12/17 21:30:39;;;;;;;;;;;18.20;67.40;;;;;;10368493;28;94485;-45
2023/12/17 21:35:41;;;;;;;;;;;18.20;67.30;;;;;;10357272;28;93851;-47
2023/12/17 21:40:43;;;;;;;;;;;18.10;67.30;;;;;;10370025;28;94453;-47
2023/12/17 21:45:45;;;;;;;;;;;18.10;67.30;;;;;;10359434;28;93434;-44
2023/12/17 21:50:47;;;;;;;;;;;18.00;66.70;;;;;;10370347;28;95187;-50
2023/12/17 21:55:50;;;;;;;;;;;18.00;66.40;;;;;;10369585;28;93676;-43
2023/12/17 22:00:52;;;;;;;;;;;17.90;66.00;;;;;;10368710;28;92893;-47
2023/12/17 22:05:54;;;;;;;;;;;17.90;65.60;;;;;;10368186;28;93772;-44
2023/12/17 22:10:56;;;;;;;;;;;17.90;65.20;;;;;;10367593;28;96395;-45
2023/12/17 22:15:57;;;;;;;;;;;17.90;64.90;;;;;;10345971;28;94592;-47
2023/12/17 22:20:59;;;;;;;;;;;17.80;64.60;;;;;;10362270;28;94382;-46
2023/12/17 22:26:01;;;;;;;;;;;17.70;64.30;;;;;;10365774;28;94105;-46
2023/12/17 22:31:02;;;;;;;;;;;17.70;64.20;;;;;;10369683;28;93448;-45
2023/12/17 22:36:04;;;;;;;;;;;17.70;63.90;;;;;;10366779;28;95147;-48
2023/12/17 22:41:06;;;;;;;;;;;17.70;63.70;;;;;;10340751;28;94055;-44
2023/12/17 22:46:08;;;;;;;;;;;17.70;63.50;;;;;;10364355;28;93545;-45
2023/12/17 22:51:13;;;;;;;;;;;17.60;63.20;;;;;;10349838;28;94901;-43
2023/12/17 22:56:15;;;;;;;;;;;17.60;63.20;;;;;;10368000;28;94436;-45
2023/12/17 23:01:17;;;;;;;;;;;17.50;63.30;;;;;;10347454;28;96843;-47
2023/12/17 23:06:21;;;;;;;;;;;17.50;63.70;;;;;;10362476;28;94676;-46
2023/12/17 23:11:23;;;;;;;;;;;17.50;63.80;;;;;;10368582;28;94597;-44
2023/12/17 23:16:25;;;;;;;;;;;17.50;63.60;;;;;;10359976;28;93554;-46
2023/12/17 23:21:27;;;;;;;;;;;17.40;63.30;;;;;;10367507;28;93432;-45
2023/12/17 23:26:29;;;;;;;;;;;17.40;63.10;;;;;;10347963;28;94460;-44
2023/12/17 23:31:30;;;;;;;;;;;17.40;63.00;;;;;;10366377;28;94377;-48
2023/12/17 23:36:32;;;;;;;;;;;17.40;62.70;;;;;;10368308;28;92777;-44
2023/12/17 23:41:34;;;;;;;;;;;17.30;62.50;;;;;;10367046;28;94291;-44
2023/12/17 23:46:35;;;;;;;;;;;17.30;62.30;;;;;;10365420;28;94431;-43
2023/12/17 23:51:37;;;;;;;;;;;17.30;62.40;;;;;;10363745;28;95808;-44
2023/12/17 23:56:42;;;;;;;;;;;17.20;62.50;;;;;;10366725;28;93498;-45
